sensor_id;sensor_type;location;lat;lon;timestamp;P1;durP1;ratioP1;P2;durP2;ratioP2
56343;SDS011;42245;42.058;24.700;2022-09-27T00:01:01;9.93;;;6.60;;
56343;SDS011;42245;42.058;24.700;2022-09-27T00:03:28;12.95;;;6.43;;
56343;SDS011;42245;42.058;24.700;2022-09-27T00:06:04;8.27;;;6.35;;
56343;SDS011;42245;42.058;24.700;2022-09-27T00:08:32;9.68;;;6.65;;
56343;SDS011;42245;42.058;24.700;2022-09-27T00:10:59;10.50;;;6.70;;
56343;SDS011;42245;42.058;24.700;2022-09-27T00:13:25;10.93;;;6.75;;
56343;SDS011;42245;42.058;24.700;2022-09-27T00:15:55;8.88;;;6.00;;
56343;SDS011;42245;42.058;24.700;2022-09-27T00:18:24;13.82;;;6.25;;
56343;SDS011;42245;42.058;24.700;2022-09-27T00:20:49;11.18;;;6.10;;
56343;SDS011;42245;42.058;24.700;2022-09-27T00:23:15;9.93;;;6.65;;
56343;SDS011;42245;42.058;24.700;2022-09-27T00:25:40;9.13;;;7.07;;
56343;SDS011;42245;42.058;24.700;2022-09-27T00:28:05;8.32;;;6.80;;
56343;SDS011;42245;42.058;24.700;2022-09-27T00:30:31;9.18;;;6.93;;
56343;SDS011;42245;42.058;24.700;2022-09-27T00:32:56;9.77;;;7.00;;
56343;SDS011;42245;42.058;24.700;2022-09-27T00:35:22;12.63;;;7.03;;
56343;SDS011;42245;42.058;24.700;2022-09-27T00:37:47;9.90;;;7.07;;
56343;SDS011;42245;42.058;24.700;2022-09-27T00:40:13;12.30;;;7.10;;
56343;SDS011;42245;42.058;24.700;2022-09-27T00:42:39;8.88;;;6.93;;
56343;SDS011;42245;42.058;24.700;2022-09-27T00:45:06;11.25;;;7.13;;
56343;SDS011;42245;42.058;24.700;2022-09-27T00:47:53;9.77;;;7.72;;
56343;SDS011;42245;42.058;24.700;2022-09-27T00:50:35;15.82;;;8.25;;
56343;SDS011;42245;42.058;24.700;2022-09-27T00:53:03;14.20;;;8.23;;
56343;SDS011;42245;42.058;24.700;2022-09-27T00:55:34;11.73;;;8.48;;
56343;SDS011;42245;42.058;24.700;2022-09-27T00:58:02;10.32;;;7.50;;
56343;SDS011;42245;42.058;24.700;2022-09-27T01:00:29;13.48;;;8.15;;
56343;SDS011;42245;42.058;24.700;2022-09-27T01:02:55;10.85;;;7.20;;
56343;SDS011;42245;42.058;24.700;2022-09-27T01:05:22;11.85;;;7.75;;
56343;SDS011;42245;42.058;24.700;2022-09-27T01:07:50;14.48;;;7.00;;
56343;SDS011;42245;42.058;24.700;2022-09-27T01:10:15;15.02;;;6.95;;
56343;SDS011;42245;42.058;24.700;2022-09-27T01:15:22;11.02;;;7.00;;
56343;SDS011;42245;42.058;24.700;2022-09-27T01:18:02;25.52;;;8.38;;
56343;SDS011;42245;42.058;24.700;2022-09-27T01:26:41;37.22;;;10.93;;
56343;SDS011;42245;42.058;24.700;2022-09-27T01:29:22;16.67;;;11.75;;
56343;SDS011;42245;42.058;24.700;2022-09-27T01:34:41;21.33;;;13.43;;
56343;SDS011;42245;42.058;24.700;2022-09-27T01:40:23;19.00;;;13.05;;
56343;SDS011;42245;42.058;24.700;2022-09-27T01:42:56;25.13;;;14.07;;
56343;SDS011;42245;42.058;24.700;2022-09-27T01:45:35;22.13;;;12.60;;
56343;SDS011;42245;42.058;24.700;2022-09-27T01:48:06;19.75;;;12.57;;
56343;SDS011;42245;42.058;24.700;2022-09-27T01:50:38;22.58;;;11.98;;
56343;SDS011;42245;42.058;24.700;2022-09-27T01:56:05;22.15;;;14.52;;
56343;SDS011;42245;42.058;24.700;2022-09-27T01:58:36;24.13;;;14.90;;
56343;SDS011;42245;42.058;24.700;2022-09-27T02:01:04;24.25;;;14.45;;
56343;SDS011;42245;42.058;24.700;2022-09-27T02:03:32;20.23;;;14.25;;
56343;SDS011;42245;42.058;24.700;2022-09-27T02:06:01;22.05;;;15.00;;
56343;SDS011;42245;42.058;24.700;2022-09-27T02:08:50;21.70;;;14.57;;
56343;SDS011;42245;42.058;24.700;2022-09-27T02:11:34;21.42;;;14.43;;
56343;SDS011;42245;42.058;24.700;2022-09-27T02:14:02;22.17;;;14.70;;
56343;SDS011;42245;42.058;24.700;2022-09-27T02:16:36;21.10;;;14.10;;
56343;SDS011;42245;42.058;24.700;2022-09-27T02:19:31;29.08;;;14.43;;
56343;SDS011;42245;42.058;24.700;2022-09-27T02:24:55;23.10;;;13.60;;
56343;SDS011;42245;42.058;24.700;2022-09-27T02:27:25;18.00;;;11.50;;
56343;SDS011;42245;42.058;24.700;2022-09-27T02:30:01;15.48;;;12.02;;
56343;SDS011;42245;42.058;24.700;2022-09-27T02:32:30;16.65;;;12.02;;
56343;SDS011;42245;42.058;24.700;2022-09-27T02:34:57;21.05;;;12.82;;
56343;SDS011;42245;42.058;24.700;2022-09-27T02:37:23;20.85;;;12.43;;
56343;SDS011;42245;42.058;24.700;2022-09-27T02:39:49;21.30;;;13.20;;
56343;SDS011;42245;42.058;24.700;2022-09-27T02:42:15;23.20;;;12.70;;
56343;SDS011;42245;42.058;24.700;2022-09-27T02:44:40;14.55;;;10.65;;
56343;SDS011;42245;42.058;24.700;2022-09-27T02:55:18;12.88;;;8.50;;
56343;SDS011;42245;42.058;24.700;2022-09-27T03:06:09;16.20;;;9.90;;
56343;SDS011;42245;42.058;24.700;2022-09-27T03:08:36;17.88;;;10.35;;
56343;SDS011;42245;42.058;24.700;2022-09-27T03:11:02;23.52;;;11.60;;
56343;SDS011;42245;42.058;24.700;2022-09-27T03:13:28;19.13;;;11.50;;
56343;SDS011;42245;42.058;24.700;2022-09-27T03:15:54;18.65;;;10.90;;
56343;SDS011;42245;42.058;24.700;2022-09-27T03:18:19;14.95;;;9.48;;
56343;SDS011;42245;42.058;24.700;2022-09-27T03:20:44;14.40;;;10.65;;
56343;SDS011;42245;42.058;24.700;2022-09-27T03:23:10;15.50;;;10.85;;
56343;SDS011;42245;42.058;24.700;2022-09-27T03:25:35;17.85;;;10.60;;
56343;SDS011;42245;42.058;24.700;2022-09-27T03:28:01;18.67;;;9.75;;
56343;SDS011;42245;42.058;24.700;2022-09-27T03:30:26;23.55;;;10.07;;
56343;SDS011;42245;42.058;24.700;2022-09-27T03:32:52;14.93;;;10.07;;
56343;SDS011;42245;42.058;24.700;2022-09-27T03:35:17;18.50;;;9.55;;
56343;SDS011;42245;42.058;24.700;2022-09-27T03:37:43;22.52;;;11.13;;
56343;SDS011;42245;42.058;24.700;2022-09-27T03:40:09;12.10;;;9.10;;
56343;SDS011;42245;42.058;24.700;2022-09-27T03:42:34;16.90;;;9.30;;
56343;SDS011;42245;42.058;24.700;2022-09-27T03:45:00;22.08;;;9.18;;
56343;SDS011;42245;42.058;24.700;2022-09-27T03:47:26;14.88;;;9.68;;
56343;SDS011;42245;42.058;24.700;2022-09-27T03:49:51;14.38;;;9.00;;
56343;SDS011;42245;42.058;24.700;2022-09-27T03:52:17;16.42;;;10.13;;
56343;SDS011;42245;42.058;24.700;2022-09-27T03:54:43;18.10;;;9.80;;
56343;SDS011;42245;42.058;24.700;2022-09-27T03:57:09;17.70;;;9.75;;
56343;SDS011;42245;42.058;24.700;2022-09-27T03:59:34;16.70;;;9.43;;
56343;SDS011;42245;42.058;24.700;2022-09-27T04:02:00;16.83;;;9.63;;
56343;SDS011;42245;42.058;24.700;2022-09-27T04:04:25;16.80;;;10.48;;
56343;SDS011;42245;42.058;24.700;2022-09-27T04:06:51;13.93;;;9.02;;
56343;SDS011;42245;42.058;24.700;2022-09-27T04:09:16;11.95;;;9.15;;
56343;SDS011;42245;42.058;24.700;2022-09-27T04:11:41;16.50;;;9.55;;
56343;SDS011;42245;42.058;24.700;2022-09-27T04:14:07;18.88;;;10.60;;
56343;SDS011;42245;42.058;24.700;2022-09-27T04:16:33;17.65;;;9.98;;
56343;SDS011;42245;42.058;24.700;2022-09-27T04:18:59;16.88;;;9.48;;
56343;SDS011;42245;42.058;24.700;2022-09-27T04:21:25;13.55;;;9.90;;
56343;SDS011;42245;42.058;24.700;2022-09-27T04:23:51;17.33;;;10.45;;
56343;SDS011;42245;42.058;24.700;2022-09-27T04:26:16;15.20;;;9.85;;
56343;SDS011;42245;42.058;24.700;2022-09-27T04:28:42;13.45;;;9.85;;
56343;SDS011;42245;42.058;24.700;2022-09-27T04:31:07;14.65;;;10.00;;
56343;SDS011;42245;42.058;24.700;2022-09-27T04:33:33;18.02;;;10.00;;
56343;SDS011;42245;42.058;24.700;2022-09-27T04:35:58;19.48;;;9.60;;
56343;SDS011;42245;42.058;24.700;2022-09-27T04:38:42;13.80;;;9.20;;
56343;SDS011;42245;42.058;24.700;2022-09-27T04:41:12;12.40;;;9.02;;
56343;SDS011;42245;42.058;24.700;2022-09-27T04:43:38;21.17;;;9.40;;
56343;SDS011;42245;42.058;24.700;2022-09-27T04:46:04;18.65;;;9.05;;
56343;SDS011;42245;42.058;24.700;2022-09-27T04:48:29;15.75;;;9.00;;
56343;SDS011;42245;42.058;24.700;2022-09-27T04:50:58;14.57;;;9.13;;
56343;SDS011;42245;42.058;24.700;2022-09-27T04:53:26;24.13;;;9.35;;
56343;SDS011;42245;42.058;24.700;2022-09-27T04:55:53;13.40;;;8.38;;
56343;SDS011;42245;42.058;24.700;2022-09-27T04:58:20;17.40;;;9.10;;
56343;SDS011;42245;42.058;24.700;2022-09-27T05:00:46;17.70;;;9.25;;
56343;SDS011;42245;42.058;24.700;2022-09-27T05:03:12;21.88;;;8.80;;
56343;SDS011;42245;42.058;24.700;2022-09-27T05:05:39;16.20;;;8.98;;
56343;SDS011;42245;42.058;24.700;2022-09-27T05:08:05;13.52;;;8.07;;
56343;SDS011;42245;42.058;24.700;2022-09-27T05:10:31;11.88;;;8.27;;
56343;SDS011;42245;42.058;24.700;2022-09-27T05:12:56;11.80;;;8.43;;
56343;SDS011;42245;42.058;24.700;2022-09-27T05:15:22;36.50;;;9.50;;
56343;SDS011;42245;42.058;24.700;2022-09-27T05:17:49;16.58;;;8.32;;
56343;SDS011;42245;42.058;24.700;2022-09-27T05:20:15;13.27;;;8.68;;
56343;SDS011;42245;42.058;24.700;2022-09-27T05:22:41;13.93;;;8.02;;
56343;SDS011;42245;42.058;24.700;2022-09-27T05:25:06;11.63;;;8.82;;
56343;SDS011;42245;42.058;24.700;2022-09-27T05:27:32;18.23;;;10.88;;
56343;SDS011;42245;42.058;24.700;2022-09-27T05:29:58;18.23;;;11.52;;
56343;SDS011;42245;42.058;24.700;2022-09-27T05:32:25;17.80;;;12.15;;
56343;SDS011;42245;42.058;24.700;2022-09-27T05:34:52;19.40;;;11.93;;
56343;SDS011;42245;42.058;24.700;2022-09-27T05:37:18;17.45;;;12.18;;
56343;SDS011;42245;42.058;24.700;2022-09-27T05:39:43;15.73;;;11.15;;
56343;SDS011;42245;42.058;24.700;2022-09-27T05:42:10;15.30;;;11.50;;
56343;SDS011;42245;42.058;24.700;2022-09-27T05:44:36;18.02;;;11.15;;
56343;SDS011;42245;42.058;24.700;2022-09-27T05:47:03;13.15;;;10.57;;
56343;SDS011;42245;42.058;24.700;2022-09-27T05:49:29;16.80;;;10.65;;
56343;SDS011;42245;42.058;24.700;2022-09-27T05:51:55;13.45;;;11.10;;
56343;SDS011;42245;42.058;24.700;2022-09-27T05:54:21;14.65;;;11.48;;
56343;SDS011;42245;42.058;24.700;2022-09-27T05:56:46;15.23;;;10.80;;
56343;SDS011;42245;42.058;24.700;2022-09-27T05:59:12;15.30;;;11.00;;
56343;SDS011;42245;42.058;24.700;2022-09-27T06:01:37;16.02;;;11.60;;
56343;SDS011;42245;42.058;24.700;2022-09-27T06:04:03;14.18;;;11.57;;
56343;SDS011;42245;42.058;24.700;2022-09-27T06:06:29;15.07;;;11.50;;
56343;SDS011;42245;42.058;24.700;2022-09-27T06:08:55;14.23;;;11.50;;
56343;SDS011;42245;42.058;24.700;2022-09-27T06:11:21;18.45;;;11.38;;
56343;SDS011;42245;42.058;24.700;2022-09-27T06:13:47;17.90;;;12.48;;
56343;SDS011;42245;42.058;24.700;2022-09-27T06:16:12;15.15;;;11.15;;
56343;SDS011;42245;42.058;24.700;2022-09-27T06:18:38;17.58;;;11.38;;
56343;SDS011;42245;42.058;24.700;2022-09-27T06:21:04;18.27;;;11.43;;
56343;SDS011;42245;42.058;24.700;2022-09-27T06:23:30;19.10;;;11.70;;
56343;SDS011;42245;42.058;24.700;2022-09-27T06:25:59;17.02;;;10.55;;
56343;SDS011;42245;42.058;24.700;2022-09-27T06:28:26;17.77;;;11.35;;
56343;SDS011;42245;42.058;24.700;2022-09-27T06:30:51;16.40;;;11.55;;
56343;SDS011;42245;42.058;24.700;2022-09-27T06:33:17;22.27;;;12.65;;
56343;SDS011;42245;42.058;24.700;2022-09-27T06:35:44;35.63;;;14.73;;
56343;SDS011;42245;42.058;24.700;2022-09-27T06:38:11;20.45;;;13.38;;
56343;SDS011;42245;42.058;24.700;2022-09-27T06:40:38;19.55;;;12.20;;
56343;SDS011;42245;42.058;24.700;2022-09-27T06:43:07;25.20;;;12.88;;
56343;SDS011;42245;42.058;24.700;2022-09-27T06:45:34;22.17;;;10.80;;
56343;SDS011;42245;42.058;24.700;2022-09-27T06:48:00;20.80;;;11.80;;
56343;SDS011;42245;42.058;24.700;2022-09-27T06:50:27;21.60;;;11.70;;
56343;SDS011;42245;42.058;24.700;2022-09-27T06:52:57;13.73;;;12.00;;
56343;SDS011;42245;42.058;24.700;2022-09-27T06:55:22;28.15;;;11.05;;
56343;SDS011;42245;42.058;24.700;2022-09-27T06:57:48;24.00;;;11.07;;
56343;SDS011;42245;42.058;24.700;2022-09-27T07:00:36;23.15;;;11.63;;
56343;SDS011;42245;42.058;24.700;2022-09-27T07:03:01;18.38;;;11.63;;
56343;SDS011;42245;42.058;24.700;2022-09-27T07:05:27;18.55;;;11.05;;
56343;SDS011;42245;42.058;24.700;2022-09-27T07:07:53;15.38;;;10.60;;
56343;SDS011;42245;42.058;24.700;2022-09-27T07:10:22;17.10;;;10.52;;
56343;SDS011;42245;42.058;24.700;2022-09-27T07:12:51;18.05;;;10.68;;
56343;SDS011;42245;42.058;24.700;2022-09-27T07:15:17;14.45;;;10.35;;
56343;SDS011;42245;42.058;24.700;2022-09-27T07:17:45;20.20;;;10.38;;
56343;SDS011;42245;42.058;24.700;2022-09-27T07:20:11;15.10;;;9.98;;
56343;SDS011;42245;42.058;24.700;2022-09-27T07:22:40;16.25;;;10.23;;
56343;SDS011;42245;42.058;24.700;2022-09-27T07:25:07;16.58;;;10.27;;
56343;SDS011;42245;42.058;24.700;2022-09-27T07:27:33;12.13;;;9.52;;
56343;SDS011;42245;42.058;24.700;2022-09-27T07:29:59;13.98;;;9.77;;
56343;SDS011;42245;42.058;24.700;2022-09-27T07:32:25;15.98;;;8.98;;
56343;SDS011;42245;42.058;24.700;2022-09-27T07:34:50;14.52;;;9.77;;
56343;SDS011;42245;42.058;24.700;2022-09-27T07:37:16;12.95;;;8.85;;
56343;SDS011;42245;42.058;24.700;2022-09-27T07:39:42;19.55;;;10.75;;
56343;SDS011;42245;42.058;24.700;2022-09-27T07:42:08;18.15;;;9.52;;
56343;SDS011;42245;42.058;24.700;2022-09-27T07:44:34;16.17;;;9.50;;
56343;SDS011;42245;42.058;24.700;2022-09-27T07:46:59;18.27;;;10.00;;
56343;SDS011;42245;42.058;24.700;2022-09-27T07:49:24;16.42;;;9.52;;
56343;SDS011;42245;42.058;24.700;2022-09-27T07:51:50;12.90;;;9.70;;
56343;SDS011;42245;42.058;24.700;2022-09-27T07:54:16;15.90;;;9.80;;
56343;SDS011;42245;42.058;24.700;2022-09-27T07:56:43;16.15;;;9.93;;
56343;SDS011;42245;42.058;24.700;2022-09-27T07:59:09;17.30;;;9.60;;
56343;SDS011;42245;42.058;24.700;2022-09-27T08:01:34;13.40;;;8.75;;
56343;SDS011;42245;42.058;24.700;2022-09-27T08:04:00;14.10;;;9.20;;
56343;SDS011;42245;42.058;24.700;2022-09-27T08:06:26;11.65;;;8.60;;
56343;SDS011;42245;42.058;24.700;2022-09-27T08:08:51;15.52;;;9.20;;
56343;SDS011;42245;42.058;24.700;2022-09-27T08:11:17;15.80;;;8.48;;
56343;SDS011;42245;42.058;24.700;2022-09-27T08:13:43;14.63;;;8.38;;
56343;SDS011;42245;42.058;24.700;2022-09-27T08:16:09;13.10;;;8.10;;
56343;SDS011;42245;42.058;24.700;2022-09-27T08:18:36;15.60;;;8.45;;
56343;SDS011;42245;42.058;24.700;2022-09-27T08:21:02;10.30;;;7.85;;
56343;SDS011;42245;42.058;24.700;2022-09-27T08:23:28;9.90;;;6.85;;
56343;SDS011;42245;42.058;24.700;2022-09-27T08:25:54;8.93;;;7.60;;
56343;SDS011;42245;42.058;24.700;2022-09-27T08:28:22;19.63;;;8.35;;
56343;SDS011;42245;42.058;24.700;2022-09-27T08:30:48;12.38;;;8.57;;
56343;SDS011;42245;42.058;24.700;2022-09-27T08:33:15;14.13;;;8.30;;
56343;SDS011;42245;42.058;24.700;2022-09-27T08:35:40;12.77;;;9.35;;
56343;SDS011;42245;42.058;24.700;2022-09-27T08:38:06;12.70;;;8.85;;
56343;SDS011;42245;42.058;24.700;2022-09-27T08:43:21;10.30;;;8.38;;
56343;SDS011;42245;42.058;24.700;2022-09-27T08:48:27;15.68;;;9.63;;
56343;SDS011;42245;42.058;24.700;2022-09-27T08:50:53;9.60;;;8.27;;
56343;SDS011;42245;42.058;24.700;2022-09-27T08:53:21;12.02;;;9.15;;
56343;SDS011;42245;42.058;24.700;2022-09-27T08:55:48;14.18;;;8.45;;
56343;SDS011;42245;42.058;24.700;2022-09-27T09:00:48;13.55;;;9.02;;
56343;SDS011;42245;42.058;24.700;2022-09-27T09:03:16;10.23;;;8.23;;
56343;SDS011;42245;42.058;24.700;2022-09-27T09:05:44;14.00;;;9.27;;
56343;SDS011;42245;42.058;24.700;2022-09-27T09:10:58;16.42;;;9.85;;
56343;SDS011;42245;42.058;24.700;2022-09-27T09:16:24;16.35;;;9.75;;
56343;SDS011;42245;42.058;24.700;2022-09-27T09:25:05;13.82;;;9.77;;
56343;SDS011;42245;42.058;24.700;2022-09-27T09:30:18;20.08;;;10.90;;
56343;SDS011;42245;42.058;24.700;2022-09-27T09:35:23;13.95;;;10.38;;
56343;SDS011;42245;42.058;24.700;2022-09-27T09:37:52;14.75;;;9.90;;
56343;SDS011;42245;42.058;24.700;2022-09-27T09:40:24;16.45;;;10.18;;
56343;SDS011;42245;42.058;24.700;2022-09-27T09:43:00;15.68;;;10.05;;
56343;SDS011;42245;42.058;24.700;2022-09-27T09:45:35;13.63;;;9.50;;
56343;SDS011;42245;42.058;24.700;2022-09-27T09:48:08;11.82;;;8.48;;
56343;SDS011;42245;42.058;24.700;2022-09-27T09:50:44;14.45;;;9.40;;
56343;SDS011;42245;42.058;24.700;2022-09-27T09:55:41;17.50;;;10.15;;
56343;SDS011;42245;42.058;24.700;2022-09-27T10:00:50;19.75;;;8.73;;
56343;SDS011;42245;42.058;24.700;2022-09-27T10:03:18;14.35;;;7.97;;
56343;SDS011;42245;42.058;24.700;2022-09-27T10:05:44;11.35;;;7.22;;
56343;SDS011;42245;42.058;24.700;2022-09-27T10:08:12;9.23;;;8.23;;
56343;SDS011;42245;42.058;24.700;2022-09-27T10:10:44;19.38;;;7.65;;
56343;SDS011;42245;42.058;24.700;2022-09-27T10:13:17;11.43;;;7.97;;
56343;SDS011;42245;42.058;24.700;2022-09-27T10:15:51;13.90;;;8.02;;
56343;SDS011;42245;42.058;24.700;2022-09-27T10:18:19;14.27;;;7.82;;
56343;SDS011;42245;42.058;24.700;2022-09-27T10:20:49;13.55;;;6.90;;
56343;SDS011;42245;42.058;24.700;2022-09-27T10:23:18;10.32;;;6.88;;
56343;SDS011;42245;42.058;24.700;2022-09-27T10:26:06;13.50;;;6.40;;
56343;SDS011;42245;42.058;24.700;2022-09-27T10:31:13;9.80;;;6.68;;
56343;SDS011;42245;42.058;24.700;2022-09-27T10:33:54;6.57;;;5.65;;
56343;SDS011;42245;42.058;24.700;2022-09-27T10:36:26;10.75;;;6.07;;
56343;SDS011;42245;42.058;24.700;2022-09-27T10:38:56;12.27;;;7.55;;
56343;SDS011;42245;42.058;24.700;2022-09-27T10:41:32;14.68;;;6.85;;
56343;SDS011;42245;42.058;24.700;2022-09-27T10:44:20;12.35;;;7.05;;
56343;SDS011;42245;42.058;24.700;2022-09-27T10:46:52;10.82;;;8.30;;
56343;SDS011;42245;42.058;24.700;2022-09-27T10:51:54;10.80;;;7.57;;
56343;SDS011;42245;42.058;24.700;2022-09-27T10:54:25;13.20;;;6.65;;
56343;SDS011;42245;42.058;24.700;2022-09-27T10:57:01;10.45;;;6.68;;
56343;SDS011;42245;42.058;24.700;2022-09-27T10:59:51;10.90;;;6.43;;
56343;SDS011;42245;42.058;24.700;2022-09-27T11:02:21;8.60;;;6.28;;
56343;SDS011;42245;42.058;24.700;2022-09-27T11:05:07;9.32;;;6.22;;
56343;SDS011;42245;42.058;24.700;2022-09-27T11:07:48;8.70;;;5.70;;
56343;SDS011;42245;42.058;24.700;2022-09-27T11:10:24;7.50;;;5.78;;
56343;SDS011;42245;42.058;24.700;2022-09-27T11:21:32;7.25;;;5.50;;
56343;SDS011;42245;42.058;24.700;2022-09-27T11:27:36;10.30;;;5.90;;
56343;SDS011;42245;42.058;24.700;2022-09-27T11:30:07;12.30;;;6.05;;
56343;SDS011;42245;42.058;24.700;2022-09-27T11:49:38;6.78;;;4.90;;
56343;SDS011;42245;42.058;24.700;2022-09-27T12:03:26;6.40;;;4.80;;
56343;SDS011;42245;42.058;24.700;2022-09-27T12:14:15;12.20;;;4.95;;
56343;SDS011;42245;42.058;24.700;2022-09-27T12:16:44;8.93;;;4.40;;
56343;SDS011;42245;42.058;24.700;2022-09-27T12:19:28;6.43;;;4.70;;
56343;SDS011;42245;42.058;24.700;2022-09-27T12:21:55;6.00;;;4.22;;
56343;SDS011;42245;42.058;24.700;2022-09-27T12:24:22;10.02;;;4.97;;
56343;SDS011;42245;42.058;24.700;2022-09-27T12:26:50;7.65;;;4.95;;
56343;SDS011;42245;42.058;24.700;2022-09-27T12:31:56;10.45;;;5.07;;
56343;SDS011;42245;42.058;24.700;2022-09-27T12:37:57;8.07;;;4.72;;
56343;SDS011;42245;42.058;24.700;2022-09-27T12:40:25;8.18;;;5.00;;
56343;SDS011;42245;42.058;24.700;2022-09-27T12:43:01;8.05;;;4.97;;
56343;SDS011;42245;42.058;24.700;2022-09-27T12:48:07;7.45;;;4.93;;
56343;SDS011;42245;42.058;24.700;2022-09-27T12:50:45;7.20;;;4.80;;
56343;SDS011;42245;42.058;24.700;2022-09-27T12:53:15;10.23;;;5.00;;
56343;SDS011;42245;42.058;24.700;2022-09-27T12:55:55;8.48;;;5.20;;
56343;SDS011;42245;42.058;24.700;2022-09-27T13:04:12;7.20;;;4.97;;
56343;SDS011;42245;42.058;24.700;2022-09-27T13:12:15;8.60;;;5.15;;
56343;SDS011;42245;42.058;24.700;2022-09-27T13:22:52;7.28;;;5.20;;
56343;SDS011;42245;42.058;24.700;2022-09-27T13:30:58;6.53;;;4.95;;
56343;SDS011;42245;42.058;24.700;2022-09-27T13:44:11;9.07;;;5.20;;
56343;SDS011;42245;42.058;24.700;2022-09-27T13:49:37;11.70;;;4.80;;
56343;SDS011;42245;42.058;24.700;2022-09-27T13:52:13;10.02;;;5.00;;
56343;SDS011;42245;42.058;24.700;2022-09-27T13:54:54;6.60;;;5.30;;
56343;SDS011;42245;42.058;24.700;2022-09-27T14:00:04;11.15;;;5.57;;
56343;SDS011;42245;42.058;24.700;2022-09-27T14:02:50;9.90;;;4.97;;
56343;SDS011;42245;42.058;24.700;2022-09-27T14:05:22;7.78;;;4.72;;
56343;SDS011;42245;42.058;24.700;2022-09-27T14:07:50;13.18;;;5.30;;
56343;SDS011;42245;42.058;24.700;2022-09-27T14:10:22;8.50;;;6.20;;
56343;SDS011;42245;42.058;24.700;2022-09-27T14:12:49;11.43;;;6.50;;
56343;SDS011;42245;42.058;24.700;2022-09-27T14:15:23;9.85;;;6.40;;
56343;SDS011;42245;42.058;24.700;2022-09-27T14:17:51;9.13;;;6.72;;
56343;SDS011;42245;42.058;24.700;2022-09-27T14:23:10;14.07;;;7.45;;
56343;SDS011;42245;42.058;24.700;2022-09-27T14:25:44;9.27;;;6.85;;
56343;SDS011;42245;42.058;24.700;2022-09-27T14:28:24;14.43;;;6.65;;
56343;SDS011;42245;42.058;24.700;2022-09-27T14:33:42;17.83;;;6.95;;
56343;SDS011;42245;42.058;24.700;2022-09-27T14:36:23;15.25;;;6.88;;
56343;SDS011;42245;42.058;24.700;2022-09-27T14:39:21;18.20;;;7.25;;
56343;SDS011;42245;42.058;24.700;2022-09-27T14:41:47;18.35;;;7.15;;
56343;SDS011;42245;42.058;24.700;2022-09-27T14:44:14;10.60;;;7.18;;
56343;SDS011;42245;42.058;24.700;2022-09-27T14:46:40;16.15;;;7.32;;
56343;SDS011;42245;42.058;24.700;2022-09-27T14:49:19;16.20;;;7.60;;
56343;SDS011;42245;42.058;24.700;2022-09-27T14:51:51;14.40;;;7.07;;
56343;SDS011;42245;42.058;24.700;2022-09-27T14:54:22;11.50;;;7.30;;
56343;SDS011;42245;42.058;24.700;2022-09-27T14:56:50;11.07;;;7.25;;
56343;SDS011;42245;42.058;24.700;2022-09-27T14:59:17;10.50;;;7.07;;
56343;SDS011;42245;42.058;24.700;2022-09-27T15:01:58;10.18;;;7.22;;
56343;SDS011;42245;42.058;24.700;2022-09-27T15:04:26;9.18;;;7.20;;
56343;SDS011;42245;42.058;24.700;2022-09-27T15:06:53;14.00;;;7.40;;
56343;SDS011;42245;42.058;24.700;2022-09-27T15:09:19;11.15;;;6.88;;
56343;SDS011;42245;42.058;24.700;2022-09-27T15:11:46;9.05;;;7.03;;
56343;SDS011;42245;42.058;24.700;2022-09-27T15:14:16;12.02;;;7.63;;
56343;SDS011;42245;42.058;24.700;2022-09-27T15:16:44;11.38;;;7.30;;
56343;SDS011;42245;42.058;24.700;2022-09-27T15:19:15;10.93;;;7.15;;
56343;SDS011;42245;42.058;24.700;2022-09-27T15:21:43;11.25;;;7.18;;
56343;SDS011;42245;42.058;24.700;2022-09-27T15:27:22;13.68;;;7.32;;
56343;SDS011;42245;42.058;24.700;2022-09-27T15:29:49;11.30;;;7.50;;
56343;SDS011;42245;42.058;24.700;2022-09-27T15:32:16;12.85;;;8.10;;
56343;SDS011;42245;42.058;24.700;2022-09-27T15:34:42;14.30;;;7.70;;
56343;SDS011;42245;42.058;24.700;2022-09-27T15:37:10;10.85;;;7.10;;
56343;SDS011;42245;42.058;24.700;2022-09-27T15:39:49;20.00;;;7.00;;
56343;SDS011;42245;42.058;24.700;2022-09-27T15:42:15;12.90;;;6.80;;
56343;SDS011;42245;42.058;24.700;2022-09-27T15:49:56;12.90;;;6.32;;
56343;SDS011;42245;42.058;24.700;2022-09-27T15:55:15;11.30;;;5.53;;
56343;SDS011;42245;42.058;24.700;2022-09-27T15:57:42;10.68;;;6.07;;
56343;SDS011;42245;42.058;24.700;2022-09-27T16:00:12;7.22;;;4.93;;
56343;SDS011;42245;42.058;24.700;2022-09-27T16:02:40;11.52;;;6.57;;
56343;SDS011;42245;42.058;24.700;2022-09-27T16:05:05;12.10;;;6.43;;
56343;SDS011;42245;42.058;24.700;2022-09-27T16:07:31;9.32;;;6.10;;
56343;SDS011;42245;42.058;24.700;2022-09-27T16:09:56;10.23;;;6.28;;
56343;SDS011;42245;42.058;24.700;2022-09-27T16:12:22;6.63;;;3.35;;
56343;SDS011;42245;42.058;24.700;2022-09-27T16:14:47;5.25;;;3.17;;
56343;SDS011;42245;42.058;24.700;2022-09-27T16:17:12;4.95;;;2.70;;
56343;SDS011;42245;42.058;24.700;2022-09-27T16:19:38;5.40;;;0.93;;
56343;SDS011;42245;42.058;24.700;2022-09-27T16:22:03;2.55;;;0.70;;
56343;SDS011;42245;42.058;24.700;2022-09-27T16:24:29;2.47;;;0.88;;
56343;SDS011;42245;42.058;24.700;2022-09-27T16:26:56;2.95;;;1.00;;
56343;SDS011;42245;42.058;24.700;2022-09-27T16:29:21;1.75;;;0.88;;
56343;SDS011;42245;42.058;24.700;2022-09-27T16:31:47;0.60;;;0.60;;
56343;SDS011;42245;42.058;24.700;2022-09-27T16:34:12;1.02;;;0.50;;
56343;SDS011;42245;42.058;24.700;2022-09-27T16:36:38;1.10;;;0.50;;
56343;SDS011;42245;42.058;24.700;2022-09-27T16:39:05;3.50;;;0.77;;
56343;SDS011;42245;42.058;24.700;2022-09-27T16:41:31;2.88;;;0.60;;
56343;SDS011;42245;42.058;24.700;2022-09-27T16:43:57;0.98;;;0.45;;
56343;SDS011;42245;42.058;24.700;2022-09-27T16:46:23;4.25;;;0.30;;
56343;SDS011;42245;42.058;24.700;2022-09-27T16:48:49;1.38;;;0.30;;
56343;SDS011;42245;42.058;24.700;2022-09-27T16:51:18;0.40;;;0.30;;
56343;SDS011;42245;42.058;24.700;2022-09-27T16:54:03;0.40;;;0.30;;
56343;SDS011;42245;42.058;24.700;2022-09-27T16:56:30;2.78;;;0.30;;
56343;SDS011;42245;42.058;24.700;2022-09-27T16:58:56;2.47;;;0.20;;
56343;SDS011;42245;42.058;24.700;2022-09-27T17:01:22;0.40;;;0.30;;
56343;SDS011;42245;42.058;24.700;2022-09-27T17:03:48;1.30;;;0.40;;
56343;SDS011;42245;42.058;24.700;2022-09-27T17:06:19;0.20;;;0.20;;
56343;SDS011;42245;42.058;24.700;2022-09-27T17:08:44;0.65;;;0.38;;
56343;SDS011;42245;42.058;24.700;2022-09-27T17:11:11;1.85;;;0.40;;
56343;SDS011;42245;42.058;24.700;2022-09-27T17:13:38;1.10;;;0.40;;
56343;SDS011;42245;42.058;24.700;2022-09-27T17:16:04;1.17;;;0.43;;
56343;SDS011;42245;42.058;24.700;2022-09-27T17:18:29;0.65;;;0.40;;
56343;SDS011;42245;42.058;24.700;2022-09-27T17:20:59;0.50;;;0.40;;
56343;SDS011;42245;42.058;24.700;2022-09-27T17:23:26;1.17;;;0.40;;
56343;SDS011;42245;42.058;24.700;2022-09-27T17:25:51;0.55;;;0.40;;
56343;SDS011;42245;42.058;24.700;2022-09-27T17:28:21;1.13;;;0.50;;
56343;SDS011;42245;42.058;24.700;2022-09-27T17:30:48;0.40;;;0.30;;
56343;SDS011;42245;42.058;24.700;2022-09-27T17:33:14;0.68;;;0.50;;
56343;SDS011;42245;42.058;24.700;2022-09-27T17:35:40;0.93;;;0.40;;
56343;SDS011;42245;42.058;24.700;2022-09-27T17:38:08;2.80;;;0.60;;